createdAt,value
2023-04-24T00:02:02.945Z,1.95
2023-04-24T00:04:30.165Z,3.78
2023-04-24T00:06:58.539Z,2.30
2023-04-24T00:09:25.684Z,1.83
2023-04-24T00:11:52.910Z,2.05
2023-04-24T00:14:19.859Z,1.60
2023-04-24T00:16:46.956Z,1.75
2023-04-24T00:19:14.091Z,0.90
2023-04-24T00:21:42.335Z,1.73
2023-04-24T00:24:12.694Z,1.58
2023-04-24T00:26:39.603Z,2.30
2023-04-24T00:29:06.507Z,2.08
2023-04-24T00:31:36.160Z,2.97
2023-04-24T00:34:03.843Z,2.35
2023-04-24T00:36:32.071Z,2.17
2023-04-24T00:38:59.170Z,2.22
2023-04-24T00:41:26.609Z,2.05
2023-04-24T00:43:54.436Z,1.40
2023-04-24T00:46:22.404Z,1.20
2023-04-24T00:48:49.679Z,3.22
2023-04-24T00:51:17.168Z,1.30
2023-04-24T00:53:44.129Z,1.63
2023-04-24T00:56:11.374Z,1.60
2023-04-24T00:58:38.508Z,2.00
2023-04-24T01:01:08.460Z,2.42
2023-04-24T01:03:38.678Z,3.22
2023-04-24T01:06:06.881Z,3.47
2023-04-24T01:08:36.068Z,2.65
2023-04-24T01:11:05.354Z,1.30
2023-04-24T01:13:33.818Z,1.63
2023-04-24T01:16:01.742Z,1.42
2023-04-24T01:18:29.199Z,1.77
2023-04-24T01:21:00.111Z,1.52
2023-04-24T01:23:27.968Z,2.15
2023-04-24T01:25:55.135Z,1.30
2023-04-24T01:28:22.838Z,1.25
2023-04-24T01:30:50.387Z,2.05
2023-04-24T01:33:17.797Z,1.92
2023-04-24T01:35:44.988Z,1.38
2023-04-24T01:38:12.154Z,4.25
2023-04-24T01:40:39.421Z,1.88
2023-04-24T01:43:06.854Z,1.35
2023-04-24T01:45:34.050Z,0.98
2023-04-24T01:48:02.038Z,1.77
2023-04-24T01:50:29.157Z,2.30
2023-04-24T01:52:56.803Z,0.98
2023-04-24T01:55:23.807Z,1.50
2023-04-24T01:57:51.632Z,1.35
2023-04-24T02:00:19.073Z,1.10
2023-04-24T02:02:48.361Z,0.70
2023-04-24T02:05:15.799Z,1.05
2023-04-24T02:07:43.177Z,1.70
2023-04-24T02:10:10.845Z,4.15
2023-04-24T02:12:38.052Z,0.98
2023-04-24T02:15:05.532Z,1.17
2023-04-24T02:17:32.811Z,2.95
2023-04-24T02:19:59.819Z,1.67
2023-04-24T02:22:26.700Z,1.60
2023-04-24T02:24:53.608Z,0.80
2023-04-24T02:27:20.649Z,1.95
2023-04-24T02:29:47.565Z,1.77
2023-04-24T02:32:16.904Z,1.27
2023-04-24T02:34:44.159Z,1.23
2023-04-24T02:37:11.207Z,2.00
2023-04-24T02:39:38.195Z,2.40
2023-04-24T02:42:05.219Z,2.22
2023-04-24T02:44:32.158Z,1.30
2023-04-24T02:46:59.061Z,0.93
2023-04-24T02:49:26.064Z,1.00
2023-04-24T02:51:53.049Z,1.08
2023-04-24T02:54:19.929Z,1.58
2023-04-24T02:56:46.851Z,2.17
2023-04-24T02:59:13.742Z,2.15
2023-04-24T03:01:40.818Z,1.75
2023-04-24T03:04:08.075Z,1.13
2023-04-24T03:06:36.831Z,0.52
2023-04-24T03:09:04.910Z,2.05
2023-04-24T03:11:31.885Z,1.27
2023-04-24T03:13:58.825Z,0.60
2023-04-24T03:16:25.832Z,3.05
2023-04-24T03:18:53.496Z,0.80
2023-04-24T03:21:20.697Z,0.80
2023-04-24T03:23:47.637Z,0.65
2023-04-24T03:26:14.576Z,1.73
2023-04-24T03:28:42.023Z,1.98
2023-04-24T03:31:09.075Z,1.33
2023-04-24T03:33:36.859Z,0.63
2023-04-24T03:36:04.117Z,1.23
2023-04-24T03:38:31.065Z,2.08
2023-04-24T03:40:57.994Z,1.95
2023-04-24T03:43:24.990Z,2.38
2023-04-24T03:45:52.168Z,1.52
2023-04-24T03:48:19.065Z,1.52
2023-04-24T03:50:46.090Z,1.08
2023-04-24T03:53:13.014Z,1.20
2023-04-24T03:55:40.010Z,0.90
2023-04-24T03:58:07.313Z,0.95
2023-04-24T04:00:34.603Z,0.60
2023-04-24T04:03:02.065Z,1.20
2023-04-24T04:05:29.216Z,1.48
2023-04-24T04:07:56.347Z,1.60
2023-04-24T04:10:23.270Z,1.40
2023-04-24T04:12:50.245Z,3.03
2023-04-24T04:15:17.169Z,2.08
2023-04-24T04:17:44.132Z,2.67
2023-04-24T04:20:12.100Z,1.77
2023-04-24T04:22:39.242Z,1.17
2023-04-24T04:25:06.709Z,1.80
2023-04-24T04:27:33.717Z,5.93
2023-04-24T04:30:05.920Z,17.30
2023-04-24T04:32:34.591Z,17.42
2023-04-24T04:35:04.454Z,34.22
2023-04-24T04:37:32.599Z,13.18
2023-04-24T04:39:59.652Z,15.90
2023-04-24T04:42:28.304Z,16.67
2023-04-24T04:44:55.444Z,12.43
2023-04-24T04:47:26.158Z,6.55
2023-04-24T04:49:53.333Z,10.07
2023-04-24T04:52:20.678Z,9.05
2023-04-24T04:54:47.758Z,5.50
2023-04-24T04:57:14.781Z,6.70
2023-04-24T04:59:42.605Z,5.00
2023-04-24T05:02:10.701Z,6.28
2023-04-24T05:04:37.838Z,3.25
2023-04-24T05:07:05.198Z,2.95
2023-04-24T05:09:32.156Z,1.63
2023-04-24T05:11:59.076Z,3.85
2023-04-24T05:14:26.045Z,4.30
2023-04-24T05:16:53.001Z,3.10
2023-04-24T05:19:19.985Z,15.40
2023-04-24T05:21:47.729Z,3.85
2023-04-24T05:24:14.723Z,4.15
2023-04-24T05:26:41.788Z,48.78
2023-04-24T05:29:08.673Z,54.58
2023-04-24T05:31:35.805Z,26.92
2023-04-24T05:34:02.818Z,24.48
2023-04-24T05:36:29.727Z,12.63
2023-04-24T05:38:57.020Z,24.38
2023-04-24T05:41:24.091Z,16.45
2023-04-24T05:43:51.272Z,23.63
2023-04-24T05:46:18.470Z,13.50
2023-04-24T05:48:45.881Z,15.55
2023-04-24T05:51:13.315Z,19.80
2023-04-24T05:53:40.653Z,14.20
2023-04-24T05:56:08.866Z,9.00
2023-04-24T05:58:35.958Z,14.57
2023-04-24T06:01:03.881Z,14.82
2023-04-24T06:03:31.111Z,15.13
2023-04-24T06:05:58.126Z,4.68
2023-04-24T06:08:25.548Z,5.63
2023-04-24T06:10:52.582Z,6.82
2023-04-24T06:13:19.591Z,5.88
2023-04-24T06:15:46.671Z,4.75
2023-04-24T06:18:14.025Z,13.85
2023-04-24T06:20:41.375Z,17.02
2023-04-24T06:23:08.653Z,8.32
2023-04-24T06:25:36.295Z,18.02
2023-04-24T06:28:04.169Z,23.50
2023-04-24T06:30:31.179Z,19.50
2023-04-24T06:33:03.077Z,7.40
2023-04-24T06:35:33.303Z,10.48
2023-04-24T06:38:00.300Z,9.38
2023-04-24T06:40:27.723Z,10.98
2023-04-24T06:42:54.734Z,10.38
2023-04-24T06:45:21.726Z,10.75
2023-04-24T06:47:49.179Z,7.78
2023-04-24T06:50:16.287Z,6.72
2023-04-24T06:52:43.375Z,7.97
2023-04-24T06:55:11.695Z,5.57
2023-04-24T06:57:38.844Z,3.38
2023-04-24T07:00:08.038Z,3.33
2023-04-24T07:02:35.176Z,4.10
2023-04-24T07:05:02.734Z,4.82
2023-04-24T07:07:29.845Z,4.40
2023-04-24T07:09:57.826Z,3.28
2023-04-24T07:12:24.953Z,2.83
2023-04-24T07:14:52.394Z,5.32
2023-04-24T07:17:19.487Z,2.53
2023-04-24T07:19:46.950Z,3.22
2023-04-24T07:22:18.207Z,3.53
2023-04-24T07:27:13.269Z,2.45
2023-04-24T07:29:42.017Z,2.88
2023-04-24T07:32:10.671Z,3.47
2023-04-24T07:34:38.128Z,3.42
2023-04-24T07:37:05.649Z,3.00
2023-04-24T07:39:32.971Z,3.13
2023-04-24T07:42:00.767Z,2.63
2023-04-24T07:44:27.975Z,2.13
2023-04-24T07:46:55.495Z,1.48
2023-04-24T07:49:23.166Z,1.75
2023-04-24T07:51:51.221Z,1.63
2023-04-24T07:54:18.509Z,1.00
2023-04-24T07:56:45.695Z,2.65
2023-04-24T07:59:13.007Z,2.40
2023-04-24T08:01:40.948Z,3.50
2023-04-24T08:04:08.266Z,3.90
2023-04-24T08:06:36.108Z,3.47
2023-04-24T08:09:06.108Z,2.85
2023-04-24T08:11:35.301Z,2.88
2023-04-24T08:14:02.668Z,2.33
2023-04-24T08:16:29.960Z,1.30
2023-04-24T08:18:57.318Z,1.73
2023-04-24T08:21:24.732Z,1.73
2023-04-24T08:23:51.705Z,1.88
2023-04-24T08:26:18.823Z,7.60
2023-04-24T08:28:46.028Z,3.83
2023-04-24T08:31:13.111Z,2.70
2023-04-24T08:33:40.318Z,2.50
2023-04-24T08:36:08.387Z,2.05
2023-04-24T08:38:35.694Z,1.67
2023-04-24T08:41:03.091Z,0.80
2023-04-24T08:43:30.278Z,2.38
2023-04-24T08:45:58.925Z,3.53
2023-04-24T08:48:31.310Z,2.42
2023-04-24T08:51:00.414Z,2.38
2023-04-24T08:53:28.310Z,4.20
2023-04-24T08:55:57.268Z,1.92
2023-04-24T08:58:27.166Z,0.93
2023-04-24T09:00:57.464Z,2.33
2023-04-24T09:03:24.916Z,2.27
2023-04-24T09:05:53.895Z,2.92
2023-04-24T09:08:22.396Z,1.80
2023-04-24T09:10:51.193Z,1.27
2023-04-24T09:13:20.382Z,0.88
2023-04-24T09:15:47.473Z,1.58
2023-04-24T09:18:14.662Z,0.70
2023-04-24T09:21:01.632Z,2.40
2023-04-24T09:23:31.352Z,1.77
2023-04-24T09:26:00.105Z,1.45
2023-04-24T09:28:47.836Z,4.65
2023-04-24T09:31:19.765Z,2.53
2023-04-24T09:33:59.059Z,4.75
2023-04-24T09:36:34.621Z,1.98
2023-04-24T09:39:03.465Z,1.95
2023-04-24T09:41:30.593Z,3.58
2023-04-24T09:43:58.342Z,2.05
2023-04-24T09:46:35.549Z,1.73
2023-04-24T09:49:16.333Z,1.67
2023-04-24T09:51:44.281Z,1.00
2023-04-24T09:54:21.261Z,1.77
2023-04-24T09:56:50.657Z,2.53
2023-04-24T09:59:20.324Z,1.38
2023-04-24T10:01:51.597Z,2.22
2023-04-24T10:04:22.894Z,1.05
2023-04-24T10:06:52.786Z,0.88
2023-04-24T10:09:22.151Z,0.80
2023-04-24T10:11:51.424Z,0.98
2023-04-24T10:14:24.394Z,1.00
2023-04-24T10:16:54.601Z,1.35
2023-04-24T10:19:21.693Z,0.93
2023-04-24T10:21:49.083Z,0.70
2023-04-24T10:24:18.213Z,2.05
2023-04-24T10:26:47.260Z,1.10
2023-04-24T10:29:16.947Z,0.93
2023-04-24T10:31:47.231Z,2.90
2023-04-24T10:34:17.784Z,1.53
2023-04-24T10:36:49.822Z,0.63
2023-04-24T10:39:18.261Z,1.05
2023-04-24T10:41:46.284Z,0.85
2023-04-24T10:44:17.382Z,0.70
2023-04-24T10:46:47.148Z,0.57
2023-04-24T10:49:14.444Z,0.93
2023-04-24T10:51:50.178Z,1.17
2023-04-24T10:54:30.365Z,0.40
2023-04-24T10:57:19.455Z,0.50
2023-04-24T10:59:47.997Z,1.58
2023-04-24T11:02:19.874Z,0.70
2023-04-24T11:04:47.758Z,1.27
2023-04-24T11:07:15.247Z,0.80
2023-04-24T11:09:44.524Z,1.10
2023-04-24T11:12:15.479Z,0.65
2023-04-24T11:15:04.145Z,2.30
2023-04-24T11:17:39.594Z,1.50
2023-04-24T11:20:26.122Z,0.65
2023-04-24T11:22:56.495Z,1.80
2023-04-24T11:25:24.083Z,0.32
2023-04-24T11:27:51.914Z,0.55
2023-04-24T11:30:21.157Z,0.57
2023-04-24T11:32:54.328Z,1.58
2023-04-24T11:35:26.415Z,2.55
2023-04-24T11:40:28.607Z,0.65
2023-04-24T11:43:00.688Z,1.07
2023-04-24T11:45:31.401Z,0.28
2023-04-24T11:48:00.257Z,0.90
2023-04-24T11:50:29.238Z,1.55
2023-04-24T11:52:57.108Z,0.80
2023-04-24T11:55:27.554Z,1.20
2023-04-24T11:58:00.390Z,1.67
2023-04-24T12:00:29.293Z,0.45
2023-04-24T12:03:07.448Z,2.20
2023-04-24T12:05:36.188Z,0.75
2023-04-24T12:08:03.559Z,2.22
2023-04-24T12:10:32.848Z,3.97
2023-04-24T12:13:01.827Z,2.05
2023-04-24T12:15:29.229Z,1.02
2023-04-24T12:17:57.743Z,1.30
2023-04-24T12:20:28.261Z,1.60
2023-04-24T12:22:56.969Z,1.88
2023-04-24T12:25:26.348Z,1.45
2023-04-24T12:28:06.198Z,0.98
2023-04-24T12:30:36.605Z,4.80
2023-04-24T12:33:05.060Z,5.27
2023-04-24T12:35:35.056Z,3.45
2023-04-24T12:38:13.924Z,3.33
2023-04-24T12:40:42.946Z,2.47
2023-04-24T12:43:18.118Z,3.38
2023-04-24T12:45:46.835Z,1.67
2023-04-24T12:48:15.562Z,1.13
2023-04-24T12:50:46.037Z,2.88
2023-04-24T12:53:13.853Z,2.20
2023-04-24T12:55:41.585Z,4.32
2023-04-24T12:58:09.190Z,2.00
2023-04-24T13:00:36.507Z,3.38
2023-04-24T13:03:04.970Z,1.92
2023-04-24T13:05:32.282Z,2.10
2023-04-24T13:08:02.197Z,1.98
2023-04-24T13:10:29.515Z,4.78
2023-04-24T13:12:56.841Z,1.52
2023-04-24T13:15:23.980Z,2.33
2023-04-24T13:17:51.953Z,1.50
2023-04-24T13:20:19.789Z,2.45
2023-04-24T13:22:46.869Z,1.63
2023-04-24T13:25:13.907Z,1.77
2023-04-24T13:27:41.191Z,1.48
2023-04-24T13:30:09.017Z,2.47
2023-04-24T13:32:36.943Z,3.50
2023-04-24T13:35:05.480Z,3.05
2023-04-24T13:37:33.022Z,3.90
2023-04-24T13:40:00.437Z,3.15
2023-04-24T13:42:29.206Z,1.45
2023-04-24T13:44:56.901Z,2.00
2023-04-24T13:47:24.555Z,2.13
2023-04-24T13:49:52.319Z,4.43
2023-04-24T13:52:19.600Z,5.07
2023-04-24T13:54:47.358Z,2.78
2023-04-24T13:57:18.201Z,1.30
2023-04-24T13:59:46.634Z,1.33
2023-04-24T14:02:13.981Z,1.58
2023-04-24T14:04:42.287Z,1.23
2023-04-24T14:07:09.976Z,2.67
2023-04-24T14:09:37.747Z,2.53
2023-04-24T14:12:04.997Z,1.83
2023-04-24T14:14:32.356Z,1.15
2023-04-24T14:17:02.877Z,1.27
2023-04-24T14:19:30.396Z,0.85
2023-04-24T14:21:59.699Z,1.35
2023-04-24T14:24:27.662Z,4.40
2023-04-24T14:26:55.193Z,1.65
2023-04-24T14:29:22.348Z,3.10
2023-04-24T14:31:50.405Z,1.38
2023-04-24T14:34:22.719Z,1.67
2023-04-24T14:36:50.157Z,2.22
2023-04-24T14:39:17.262Z,2.00
2023-04-24T14:41:44.447Z,4.65
2023-04-24T14:44:12.028Z,19.63
2023-04-24T14:46:39.334Z,16.52
2023-04-24T14:49:06.652Z,34.10
2023-04-24T14:51:33.659Z,93.75
2023-04-24T14:54:01.064Z,46.30
2023-04-24T14:56:28.420Z,65.63
2023-04-24T14:58:56.362Z,17.85
2023-04-24T15:01:23.680Z,10.32
2023-04-24T15:03:51.156Z,10.43
2023-04-24T15:06:18.886Z,13.90
2023-04-24T15:08:48.687Z,9.60
2023-04-24T15:13:46.852Z,8.95
2023-04-24T15:16:14.672Z,8.77
2023-04-24T15:18:41.915Z,3.25
2023-04-24T15:21:09.114Z,5.07
2023-04-24T15:23:36.212Z,1.98
2023-04-24T15:26:03.691Z,4.50
2023-04-24T15:28:30.757Z,4.63
2023-04-24T15:30:57.845Z,3.33
2023-04-24T15:33:25.285Z,3.22
2023-04-24T15:35:52.706Z,2.15
2023-04-24T15:38:19.740Z,2.63
2023-04-24T15:40:46.789Z,1.73
2023-04-24T15:43:13.943Z,2.80
2023-04-24T15:45:45.392Z,1.55
2023-04-24T15:48:12.904Z,2.33
2023-04-24T15:50:39.980Z,2.92
2023-04-24T15:53:08.490Z,1.13
2023-04-24T15:55:37.948Z,15.80
2023-04-24T15:58:06.155Z,4.20
2023-04-24T16:00:36.099Z,2.03
2023-04-24T16:03:04.432Z,1.33
2023-04-24T16:05:32.736Z,1.65
2023-04-24T16:08:00.301Z,2.75
2023-04-24T16:10:27.867Z,1.83
2023-04-24T16:12:55.378Z,3.25
2023-04-24T16:15:23.119Z,2.30
2023-04-24T16:17:51.655Z,2.28
2023-04-24T16:20:19.036Z,1.85
2023-04-24T16:22:46.288Z,0.80
2023-04-24T16:25:13.964Z,1.90
2023-04-24T16:27:41.365Z,3.47
2023-04-24T16:30:09.048Z,1.50
2023-04-24T16:32:36.694Z,2.00
2023-04-24T16:35:07.387Z,25.48
2023-04-24T16:37:34.545Z,26.27
2023-04-24T16:40:02.073Z,32.67
2023-04-24T16:42:29.162Z,14.93
2023-04-24T16:44:56.365Z,65.43
2023-04-24T16:47:23.492Z,69.20
2023-04-24T16:49:50.752Z,36.63
2023-04-24T16:52:17.867Z,62.25
2023-04-24T16:54:45.008Z,51.15
2023-04-24T16:57:12.024Z,79.78
2023-04-24T16:59:39.339Z,14.35
2023-04-24T17:02:06.633Z,15.93
2023-04-24T17:04:36.167Z,26.15
2023-04-24T17:07:06.509Z,11.60
2023-04-24T17:09:33.581Z,11.10
2023-04-24T17:12:02.529Z,34.67
2023-04-24T17:14:30.170Z,12.35
2023-04-24T17:16:57.314Z,16.63
2023-04-24T17:19:24.641Z,13.68
2023-04-24T17:21:51.994Z,27.35
2023-04-24T17:24:19.164Z,51.42
2023-04-24T17:26:46.321Z,27.80
2023-04-24T17:29:15.427Z,16.65
2023-04-24T17:31:42.850Z,29.08
2023-04-24T17:34:11.009Z,72.90
2023-04-24T17:36:42.197Z,38.53
2023-04-24T17:41:37.937Z,38.00
2023-04-24T17:44:05.824Z,63.53
2023-04-24T17:46:33.179Z,34.67
2023-04-24T17:49:02.107Z,22.42
2023-04-24T17:51:30.417Z,22.83
2023-04-24T17:53:58.497Z,23.23
2023-04-24T17:56:26.212Z,12.15
2023-04-24T17:58:54.308Z,17.85
2023-04-24T18:01:21.477Z,6.82
2023-04-24T18:03:48.778Z,5.50
2023-04-24T18:06:17.932Z,11.27
2023-04-24T18:08:46.392Z,9.73
2023-04-24T18:11:14.624Z,5.78
2023-04-24T18:13:42.125Z,2.92
2023-04-24T18:16:09.586Z,1.58
2023-04-24T18:18:37.412Z,2.40
2023-04-24T18:21:04.828Z,3.78
2023-04-24T18:23:31.993Z,1.80
2023-04-24T18:26:02.626Z,9.43
2023-04-24T18:28:32.006Z,1.55
2023-04-24T18:30:59.385Z,4.07
2023-04-24T18:33:27.478Z,2.88
2023-04-24T18:35:55.018Z,1.77
2023-04-24T18:38:22.623Z,1.52
2023-04-24T18:40:50.687Z,1.15
2023-04-24T18:43:17.811Z,0.77
2023-04-24T18:45:44.897Z,4.95
2023-04-24T18:48:12.038Z,2.15
2023-04-24T18:50:41.205Z,1.73
2023-04-24T18:53:10.307Z,3.65
2023-04-24T18:55:37.388Z,4.63
2023-04-24T18:58:04.500Z,3.88
2023-04-24T19:00:31.985Z,16.27
2023-04-24T19:02:59.111Z,13.75
2023-04-24T19:05:26.468Z,22.63
2023-04-24T19:07:53.665Z,40.03
2023-04-24T19:10:20.937Z,53.65
2023-04-24T19:12:52.439Z,51.58
2023-04-24T19:15:19.775Z,19.25
2023-04-24T19:17:49.121Z,31.58
2023-04-24T19:20:16.394Z,37.08
2023-04-24T19:22:44.973Z,42.97
2023-04-24T19:25:12.117Z,40.30
2023-04-24T19:27:39.857Z,50.92
2023-04-24T19:30:07.957Z,37.30
2023-04-24T19:32:35.222Z,38.70
2023-04-24T19:35:04.497Z,58.00
2023-04-24T19:37:32.724Z,33.97
2023-04-24T19:39:59.874Z,25.65
2023-04-24T19:42:39.713Z,34.05
2023-04-24T19:45:12.851Z,14.70
2023-04-24T19:47:40.555Z,25.23
2023-04-24T19:50:08.925Z,20.50
2023-04-24T19:52:40.132Z,23.83
2023-04-24T19:57:37.473Z,19.73
2023-04-24T20:00:05.275Z,15.23
2023-04-24T20:02:33.466Z,16.00
2023-04-24T20:05:01.334Z,9.85
2023-04-24T20:07:30.582Z,17.55
2023-04-24T20:09:58.133Z,10.32
2023-04-24T20:12:27.323Z,12.55
2023-04-24T20:14:55.197Z,13.52
2023-04-24T20:17:24.553Z,14.07
2023-04-24T20:19:53.856Z,4.80
2023-04-24T20:22:23.196Z,3.63
2023-04-24T20:24:52.648Z,9.65
2023-04-24T20:27:20.964Z,7.50
2023-04-24T20:29:48.596Z,3.53
2023-04-24T20:32:19.329Z,15.20
2023-04-24T20:34:48.212Z,6.43
2023-04-24T20:37:17.686Z,5.20
2023-04-24T20:39:48.661Z,6.80
2023-04-24T20:42:17.455Z,6.90
2023-04-24T20:44:46.232Z,7.10
2023-04-24T20:47:14.584Z,3.90
2023-04-24T20:49:43.016Z,2.38
2023-04-24T20:52:10.412Z,4.93
2023-04-24T20:54:38.630Z,4.32
2023-04-24T20:57:06.631Z,3.28
2023-04-24T20:59:33.995Z,6.22
2023-04-24T21:02:01.536Z,2.40
2023-04-24T21:04:28.967Z,5.32
2023-04-24T21:06:56.251Z,2.67
2023-04-24T21:09:23.570Z,5.20
2023-04-24T21:11:51.083Z,4.40
2023-04-24T21:14:18.477Z,7.10
2023-04-24T21:16:47.205Z,2.15
2023-04-24T21:19:14.450Z,1.90
2023-04-24T21:21:42.092Z,2.33
2023-04-24T21:24:09.425Z,7.82
2023-04-24T21:26:36.736Z,12.57
2023-04-24T21:29:04.590Z,25.15
2023-04-24T21:31:34.851Z,18.85
2023-04-24T21:34:04.031Z,17.43
2023-04-24T21:36:32.712Z,17.23
2023-04-24T21:39:00.139Z,8.90
2023-04-24T21:41:27.569Z,13.55
2023-04-24T21:43:56.107Z,12.93
2023-04-24T21:46:23.770Z,8.95
2023-04-24T21:48:50.930Z,7.30
2023-04-24T21:51:18.889Z,9.23
2023-04-24T21:53:46.469Z,7.63
2023-04-24T21:56:15.366Z,2.60
2023-04-24T21:58:43.106Z,5.22
2023-04-24T22:01:10.822Z,5.57
2023-04-24T22:03:38.434Z,5.10
2023-04-24T22:06:05.953Z,2.08
2023-04-24T22:08:33.753Z,1.70
2023-04-24T22:11:01.511Z,2.63
2023-04-24T22:13:29.369Z,4.15
2023-04-24T22:15:57.131Z,2.92
2023-04-24T22:18:30.700Z,6.03
2023-04-24T22:21:07.799Z,2.80
2023-04-24T22:23:36.208Z,3.53
2023-04-24T22:26:07.397Z,2.63
2023-04-24T22:31:01.587Z,1.92
2023-04-24T22:33:29.394Z,1.27
2023-04-24T22:35:56.778Z,1.80
2023-04-24T22:38:23.898Z,3.13
2023-04-24T22:40:51.544Z,2.20
2023-04-24T22:43:18.574Z,2.15
2023-04-24T22:45:45.748Z,1.70
2023-04-24T22:48:12.832Z,2.15
2023-04-24T22:50:39.825Z,1.77
2023-04-24T22:53:06.834Z,1.42
2023-04-24T22:55:33.957Z,1.60
2023-04-24T22:58:01.208Z,1.90
2023-04-24T23:00:28.379Z,1.42
2023-04-24T23:02:56.282Z,0.70
2023-04-24T23:05:25.500Z,1.13
2023-04-24T23:07:52.719Z,2.13
2023-04-24T23:10:19.900Z,0.68
2023-04-24T23:12:47.168Z,1.00
2023-04-24T23:15:14.166Z,0.80
2023-04-24T23:17:41.739Z,1.10
2023-04-24T23:20:14.020Z,1.45
2023-04-24T23:22:41.772Z,1.73
2023-04-24T23:25:09.362Z,0.95
2023-04-24T23:27:36.338Z,1.35
2023-04-24T23:30:04.924Z,0.80
2023-04-24T23:32:31.936Z,1.10
2023-04-24T23:34:58.989Z,1.10
2023-04-24T23:37:26.242Z,1.73
2023-04-24T23:39:53.385Z,3.33
2023-04-24T23:42:20.319Z,1.48
2023-04-24T23:44:47.224Z,1.00
2023-04-24T23:47:14.188Z,1.08
2023-04-24T23:49:41.321Z,1.55
2023-04-24T23:52:08.262Z,2.70
2023-04-24T23:54:35.471Z,0.75
2023-04-24T23:57:02.946Z,0.70
2023-04-24T23:59:30.985Z,1.10
